Terminal Aerodrome Forecast
Issued by NWS

Home | Current Version | Previous Version | Text Only | Print | Product List | Glossary On
Versions: 1 2 3 4 5 6 7 8 9 10 11 12 13 14 15 16 17 18 19 20 21 22 23 24 25 26
000
FTUS41 KBUF 281100
TAFIAG
TAF
KIAG 281127Z 2812/2912 03014KT 3SM +RA VCTS OVC007CB
     FM281300 02014KT 3SM +RA OVC012
     FM281700 34014KT P6SM -SHRA OVC020
     FM281800 34014KT P6SM OVC025
     FM281900 33015KT P6SM OVC035
     FM290200 31010KT P6SM SCT050
     FM291100 26005KT P6SM SCT050=

USA.gov is the U.S. government's official web portal to all federal, state and local government web resources and services.